Time;durP1;ratioP1;P1;durP2;ratioP2;P2;SDS_P1;SDS_P2;PMS_P1;PMS_P2;Temp;Humidity;BMP_temperature;BMP_pressure;BME280_temperature;BME280_humidity;BME280_pressure;Samples;Min_cycle;Max_cycle;Signal;HPM_P1;HPM_P2
2022/01/31 00:01:06;;;;;;;59.70;35.72;;;11.10;98.80;;;;;;5110949;28;20058;-75
2022/01/31 00:04:09;;;;;;;60.38;35.25;;;11.20;98.90;;;;;;5111262;28;20054;-75
2022/01/31 00:07:13;;;;;;;57.28;33.20;;;11.30;98.80;;;;;;5110995;28;20038;-75
2022/01/31 00:10:26;;;;;;;50.90;32.33;;;11.30;98.60;;;;;;5111226;28;20050;-75
2022/01/31 00:13:37;;;;;;;56.72;32.47;;;11.30;98.50;;;;;;5115014;28;20046;-75
2022/01/31 00:16:41;;;;;;;53.63;29.27;;;11.30;98.50;;;;;;5115082;28;20042;-75
2022/01/31 00:19:45;;;;;;;38.33;24.73;;;11.30;98.80;;;;;;5113931;28;20039;-75
2022/01/31 00:22:49;;;;;;;43.70;22.70;;;11.30;98.90;;;;;;5113816;28;20059;-75
2022/01/31 00:25:53;;;;;;;41.45;24.77;;;11.40;98.80;;;;;;5114821;28;20059;-75
2022/01/31 00:28:57;;;;;;;50.90;31.55;;;11.40;98.50;;;;;;5114809;28;20038;-75
2022/01/31 00:32:01;;;;;;;61.20;32.22;;;11.40;98.50;;;;;;5101809;28;20623;-75
2022/01/31 00:35:06;;;;;;;65.47;35.72;;;11.30;98.70;;;;;;5114674;28;20498;-75
2022/01/31 00:38:10;;;;;;;54.80;31.88;;;11.20;98.70;;;;;;5114234;28;20042;-75
2022/01/31 00:41:14;;;;;;;54.85;30.13;;;11.20;98.90;;;;;;5114502;28;20510;-75
2022/01/31 00:44:37;;;;;;;48.08;30.88;;;11.30;98.80;;;;;;5114283;28;20054;-75
2022/01/31 00:47:45;;;;;;;68.82;35.45;;;11.30;98.90;;;;;;5114135;28;20051;-75
2022/01/31 00:50:49;;;;;;;63.33;38.00;;;11.40;98.60;;;;;;5114394;28;20055;-75
2022/01/31 00:53:53;;;;;;;53.55;34.22;;;11.30;98.40;;;;;;5113427;28;20062;-75
2022/01/31 00:56:57;;;;;;;61.83;34.53;;;11.30;98.60;;;;;;5113533;28;20062;-75
2022/01/31 01:00:00;;;;;;;69.05;38.28;;;11.30;98.60;;;;;;5114153;28;20046;-75
2022/01/31 01:03:04;;;;;;;57.15;31.63;;;11.30;98.50;;;;;;5114080;28;20043;-75
2022/01/31 01:06:10;;;;;;;49.45;28.50;;;11.40;98.30;;;;;;5113291;28;20047;-75
2022/01/31 01:09:15;;;;;;;42.63;24.52;;;11.40;98.00;;;;;;5113220;28;20042;-74
2022/01/31 01:12:20;;;;;;;35.92;19.63;;;11.40;97.80;;;;;;5113129;28;20051;-75
2022/01/31 01:15:25;;;;;;;27.73;15.73;;;11.50;97.50;;;;;;5112918;28;20061;-75
2022/01/31 01:18:29;;;;;;;25.55;13.15;;;11.50;97.40;;;;;;5113957;28;20055;-75
2022/01/31 01:21:33;;;;;;;22.27;10.88;;;11.60;97.10;;;;;;5112850;28;20043;-75
2022/01/31 01:24:38;;;;;;;24.67;10.40;;;11.60;96.80;;;;;;5112465;28;20125;-74
2022/01/31 01:27:45;;;;;;;21.05;9.98;;;11.60;96.70;;;;;;5112797;28;20043;-75
2022/01/31 01:30:49;;;;;;;20.73;9.75;;;11.60;96.70;;;;;;5112450;28;20054;-75
2022/01/31 01:33:56;;;;;;;21.67;9.90;;;11.70;96.60;;;;;;5112520;28;20413;-74
2022/01/31 01:37:01;;;;;;;20.75;9.98;;;11.70;96.80;;;;;;5112520;28;20046;-75
2022/01/31 01:40:06;;;;;;;24.90;10.90;;;11.70;97.00;;;;;;5112388;28;20042;-75
2022/01/31 01:43:12;;;;;;;18.88;8.95;;;11.70;97.00;;;;;;5100676;28;20613;-74
2022/01/31 01:46:16;;;;;;;29.17;10.00;;;11.70;97.00;;;;;;5113220;28;20518;-75
2022/01/31 01:49:21;;;;;;;26.27;10.55;;;11.70;97.00;;;;;;5112448;28;20510;-75
2022/01/31 01:52:25;;;;;;;20.23;10.25;;;11.60;97.10;;;;;;5112056;28;20043;-75
2022/01/31 01:55:30;;;;;;;18.55;10.23;;;11.60;97.00;;;;;;5113137;28;20070;-75
2022/01/31 01:58:40;;;;;;;22.83;10.80;;;11.60;97.00;;;;;;5112367;28;20042;-75
2022/01/31 02:01:44;;;;;;;22.42;10.43;;;11.60;97.10;;;;;;5111697;28;20062;-75
2022/01/31 02:04:49;;;;;;;21.38;10.55;;;11.50;97.10;;;;;;5100035;28;20054;-75
2022/01/31 02:08:08;;;;;;;21.88;10.70;;;11.50;96.90;;;;;;5111756;28;20066;-75
2022/01/31 02:11:13;;;;;;;20.83;10.40;;;11.60;97.00;;;;;;5099646;28;20043;-75
2022/01/31 02:14:25;;;;;;;24.25;10.85;;;11.60;96.80;;;;;;5111737;28;20671;-75
2022/01/31 02:17:48;;;;;;;21.60;9.77;;;11.60;96.90;;;;;;5112521;28;20046;-75
2022/01/31 02:20:57;;;;;;;19.83;10.20;;;11.60;96.70;;;;;;5088910;28;20189;-75
2022/01/31 02:24:01;;;;;;;17.38;9.50;;;11.60;96.70;;;;;;5111667;28;20051;-75
2022/01/31 02:27:13;;;;;;;22.25;10.90;;;11.60;96.80;;;;;;5099975;28;20047;-74
2022/01/31 02:30:18;;;;;;;18.75;10.00;;;11.60;96.80;;;;;;5111300;28;20047;-75
2022/01/31 02:33:24;;;;;;;20.67;9.85;;;11.60;96.80;;;;;;5111079;28;20038;-74
2022/01/31 02:36:28;;;;;;;19.77;10.88;;;11.60;96.70;;;;;;5112195;28;20046;-75
2022/01/31 02:39:32;;;;;;;19.83;11.85;;;11.70;96.70;;;;;;5111128;28;20042;-75
2022/01/31 02:42:36;;;;;;;26.02;12.88;;;11.70;96.70;;;;;;5111175;28;20055;-75
2022/01/31 02:45:40;;;;;;;20.38;13.20;;;11.60;96.90;;;;;;5110935;28;20054;-76
2022/01/31 02:48:44;;;;;;;29.13;12.98;;;11.60;96.90;;;;;;5111148;28;20081;-75
2022/01/31 02:51:59;;;;;;;24.48;11.88;;;11.60;97.00;;;;;;5110919;28;20046;-75
2022/01/31 02:55:04;;;;;;;25.27;14.00;;;11.50;97.10;;;;;;5099489;28;20043;-75
2022/01/31 02:58:09;;;;;;;33.17;16.55;;;11.50;97.40;;;;;;5111013;28;20050;-75
2022/01/31 03:01:14;;;;;;;33.42;17.50;;;11.50;97.50;;;;;;5110934;28;20496;-75
2022/01/31 03:04:19;;;;;;;37.45;16.50;;;11.40;97.60;;;;;;5110928;28;20070;-75
2022/01/31 03:07:23;;;;;;;31.50;16.30;;;11.30;97.60;;;;;;5110986;28;20039;-75
2022/01/31 03:10:28;;;;;;;40.20;18.73;;;11.30;97.80;;;;;;5111117;28;20051;-75
2022/01/31 03:13:33;;;;;;;39.10;19.13;;;11.30;97.60;;;;;;5110994;28;20042;-74
2022/01/31 03:16:40;;;;;;;35.90;18.55;;;11.30;97.60;;;;;;5110902;28;20054;-75
2022/01/31 03:20:08;;;;;;;30.10;16.80;;;11.30;97.70;;;;;;5114596;28;20038;-75
2022/01/31 03:23:13;;;;;;;35.38;18.63;;;11.30;97.80;;;;;;5111522;28;20046;-75
2022/01/31 03:26:18;;;;;;;39.03;19.20;;;11.30;97.50;;;;;;5110831;28;20639;-76
2022/01/31 03:29:22;;;;;;;35.42;19.25;;;11.30;97.60;;;;;;5099021;28;20510;-75
2022/01/31 03:32:25;;;;;;;34.28;19.58;;;11.20;97.50;;;;;;5110273;28;20070;-75
2022/01/31 03:35:29;;;;;;;34.00;19.67;;;11.20;97.90;;;;;;5098947;28;20043;-75
2022/01/31 03:38:40;;;;;;;35.30;19.10;;;11.20;97.90;;;;;;5110714;28;20046;-75
2022/01/31 03:41:44;;;;;;;35.35;18.08;;;11.20;98.00;;;;;;5110582;28;20043;-75
2022/01/31 03:44:48;;;;;;;34.67;18.77;;;11.10;97.90;;;;;;5110330;28;20050;-75
2022/01/31 03:47:53;;;;;;;35.08;19.05;;;11.10;98.10;;;;;;5113398;28;20047;-75
2022/01/31 03:50:58;;;;;;;31.48;18.67;;;11.10;98.00;;;;;;5115549;28;20054;-76
2022/01/31 03:54:04;;;;;;;34.92;18.55;;;11.10;98.00;;;;;;5115229;28;20050;-76
2022/01/31 03:57:08;;;;;;;41.63;20.30;;;11.00;97.90;;;;;;5114677;28;20043;-75
2022/01/31 04:00:51;;;;;;;40.90;19.50;;;10.90;98.10;;;;;;5115318;28;20055;-76
2022/01/31 04:03:55;;;;;;;32.63;19.73;;;10.80;98.50;;;;;;5114487;28;20042;-75
2022/01/31 04:06:59;;;;;;;36.22;18.45;;;10.80;98.50;;;;;;5114928;28;20062;-75
2022/01/31 04:10:04;;;;;;;36.70;19.05;;;10.80;98.70;;;;;;5115264;28;20055;-75
2022/01/31 04:13:08;;;;;;;28.85;16.45;;;10.90;98.40;;;;;;5114895;28;20066;-75
2022/01/31 04:16:12;;;;;;;29.88;16.35;;;10.90;98.60;;;;;;5114285;28;20047;-75
2022/01/31 04:19:16;;;;;;;33.20;17.77;;;11.00;98.30;;;;;;5115038;28;20399;-75
2022/01/31 04:22:22;;;;;;;31.27;16.58;;;11.00;98.30;;;;;;5114044;28;20043;-75
2022/01/31 04:28:51;;;;;;;29.70;14.60;;;11.00;98.20;;;;;;5114549;28;20066;-75
2022/01/31 04:31:55;;;;;;;34.03;13.95;;;11.00;98.20;;;;;;5114369;28;20042;-75
2022/01/31 04:34:59;;;;;;;30.13;13.20;;;11.00;98.30;;;;;;5114839;28;20514;-75
2022/01/31 04:38:03;;;;;;;26.73;14.68;;;11.00;98.10;;;;;;5114578;28;20038;-75
2022/01/31 04:41:07;;;;;;;29.00;14.10;;;11.10;98.00;;;;;;5114485;28;20817;-75
2022/01/31 04:44:11;;;;;;;32.13;13.82;;;11.10;98.10;;;;;;5114281;28;20046;-75
2022/01/31 04:47:15;;;;;;;31.83;14.60;;;11.10;98.10;;;;;;5113957;28;20506;-75
2022/01/31 04:50:20;;;;;;;30.60;13.43;;;11.00;98.00;;;;;;5113263;28;20043;-75
2022/01/31 04:53:24;;;;;;;28.00;14.52;;;11.00;98.20;;;;;;5114086;28;20398;-75
2022/01/31 04:56:29;;;;;;;24.75;12.32;;;11.10;98.20;;;;;;5113815;28;20046;-75
2022/01/31 04:59:33;;;;;;;22.38;12.25;;;11.10;98.30;;;;;;5113989;28;20055;-75
2022/01/31 05:02:37;;;;;;;23.27;12.63;;;11.10;98.20;;;;;;5113677;28;20050;-75
2022/01/31 05:05:42;;;;;;;26.85;12.40;;;11.20;98.30;;;;;;5113834;28;20429;-75
2022/01/31 05:08:46;;;;;;;24.33;12.63;;;11.20;98.00;;;;;;5113790;28;20058;-75
2022/01/31 05:11:50;;;;;;;20.67;11.40;;;11.20;98.00;;;;;;5113996;28;20047;-75
2022/01/31 05:14:54;;;;;;;27.08;12.80;;;11.20;98.10;;;;;;5112995;28;20039;-75
2022/01/31 05:17:58;;;;;;;35.22;12.60;;;11.20;98.30;;;;;;5113579;28;20043;-75
2022/01/31 05:21:04;;;;;;;23.23;12.85;;;11.20;98.30;;;;;;5112860;28;20513;-75
2022/01/31 05:24:10;;;;;;;25.88;11.15;;;11.10;98.40;;;;;;5112642;28;20089;-76
2022/01/31 05:27:14;;;;;;;25.05;11.07;;;11.10;98.80;;;;;;5113613;28;20042;-76
2022/01/31 05:30:19;;;;;;;23.02;11.32;;;11.10;98.70;;;;;;5113442;28;20038;-75
2022/01/31 05:33:23;;;;;;;21.02;10.82;;;11.10;98.90;;;;;;5113674;28;20058;-75
2022/01/31 05:36:27;;;;;;;26.73;12.70;;;11.20;99.00;;;;;;5113261;28;20050;-75
2022/01/31 05:39:31;;;;;;;28.55;11.65;;;11.20;98.80;;;;;;5113607;28;20039;-75
2022/01/31 05:42:35;;;;;;;27.42;10.48;;;11.20;99.00;;;;;;5113197;28;20038;-75
2022/01/31 05:45:39;;;;;;;27.70;11.35;;;11.20;99.00;;;;;;5100654;28;20082;-75
2022/01/31 05:48:43;;;;;;;20.02;10.48;;;11.20;98.80;;;;;;5113117;28;20063;-75
2022/01/31 05:52:08;;;;;;;24.85;10.95;;;11.20;98.70;;;;;;5112931;28;20042;-75
2022/01/31 05:55:13;;;;;;;28.70;10.57;;;11.10;98.80;;;;;;5113366;28;20494;-75
2022/01/31 05:58:17;;;;;;;26.73;10.57;;;11.00;98.90;;;;;;5112413;28;20506;-74
2022/01/31 06:01:21;;;;;;;24.35;10.95;;;11.10;99.00;;;;;;5112952;28;20043;-75
2022/01/31 06:04:26;;;;;;;28.02;11.60;;;11.10;99.20;;;;;;5113524;28;20046;-75
2022/01/31 06:07:30;;;;;;;30.00;11.52;;;11.10;99.00;;;;;;5112824;28;20058;-75
2022/01/31 06:10:41;;;;;;;27.45;11.55;;;11.20;98.90;;;;;;5112141;28;20109;-75
2022/01/31 06:13:47;;;;;;;21.77;10.88;;;11.10;98.80;;;;;;5111925;28;20047;-75
2022/01/31 06:16:51;;;;;;;26.65;10.75;;;11.10;98.90;;;;;;5112552;28;20042;-75
2022/01/31 06:19:54;;;;;;;21.55;10.18;;;11.10;99.20;;;;;;5112653;28;20038;-76
2022/01/31 06:22:59;;;;;;;25.05;10.75;;;11.20;99.10;;;;;;5112347;28;20043;-75
2022/01/31 06:26:03;;;;;;;23.33;10.45;;;11.20;99.10;;;;;;5112113;28;20054;-75
2022/01/31 06:29:07;;;;;;;24.52;11.80;;;11.20;99.00;;;;;;5111618;28;20050;-75
2022/01/31 06:32:22;;;;;;;27.20;11.40;;;11.30;98.80;;;;;;5111234;28;20047;-75
2022/01/31 06:35:27;;;;;;;26.95;11.38;;;11.20;98.90;;;;;;5112138;28;20043;-78
2022/01/31 06:38:31;;;;;;;24.05;11.15;;;11.30;99.00;;;;;;5111365;28;20042;-75
2022/01/31 06:41:36;;;;;;;23.88;11.82;;;11.30;99.00;;;;;;5112297;28;20043;-75
2022/01/31 06:44:40;;;;;;;23.92;11.10;;;11.40;98.90;;;;;;5111217;28;20062;-74
2022/01/31 06:47:44;;;;;;;29.35;13.43;;;11.40;98.90;;;;;;5111831;28;20411;-73
2022/01/31 06:50:48;;;;;;;31.92;17.83;;;11.40;98.90;;;;;;5111556;28;20039;-73
2022/01/31 06:53:55;;;;;;;66.72;33.35;;;11.50;98.90;;;;;;5111726;28;20038;-74
2022/01/31 06:57:01;;;;;;;43.88;19.58;;;11.50;98.90;;;;;;5110576;28;20055;-74
2022/01/31 07:00:07;;;;;;;34.22;15.38;;;11.50;99.00;;;;;;5110677;28;20067;-74
2022/01/31 07:03:13;;;;;;;22.08;10.30;;;11.50;99.00;;;;;;5110708;28;20046;-74
2022/01/31 07:06:17;;;;;;;28.15;11.65;;;11.60;98.90;;;;;;5111419;28;20102;-74
2022/01/31 07:09:22;;;;;;;29.38;13.18;;;11.60;98.90;;;;;;5111497;28;20046;-73
2022/01/31 07:12:32;;;;;;;23.23;11.35;;;11.60;98.80;;;;;;5111488;28;20046;-75
2022/01/31 07:15:36;;;;;;;20.73;11.25;;;11.70;98.80;;;;;;5111257;28;20046;-75
2022/01/31 07:18:42;;;;;;;27.55;13.15;;;11.60;98.70;;;;;;5111046;28;20039;-74
2022/01/31 07:21:49;;;;;;;26.63;13.63;;;11.70;98.90;;;;;;5110348;28;20556;-76
2022/01/31 07:25:04;;;;;;;29.58;16.05;;;11.70;98.70;;;;;;5110934;28;20384;-80
2022/01/31 07:28:10;;;;;;;25.33;15.15;;;11.70;98.70;;;;;;5110872;28;20067;-78
2022/01/31 07:31:16;;;;;;;30.02;15.23;;;11.70;98.80;;;;;;5111272;28;20046;-76
2022/01/31 07:34:20;;;;;;;40.15;15.35;;;11.70;98.80;;;;;;5111368;28;20058;-76
2022/01/31 07:37:25;;;;;;;27.45;15.18;;;11.80;98.70;;;;;;5111221;28;20051;-79
2022/01/31 07:40:30;;;;;;;27.90;15.52;;;11.80;98.70;;;;;;5111145;28;20121;-78
2022/01/31 07:43:35;;;;;;;48.65;19.17;;;11.80;98.90;;;;;;5111642;28;20054;-77
2022/01/31 07:46:40;;;;;;;33.10;12.63;;;11.80;99.00;;;;;;5110542;28;20050;-75
2022/01/31 07:49:43;;;;;;;24.30;11.43;;;11.80;99.10;;;;;;5111047;28;20051;-73
2022/01/31 07:52:47;;;;;;;17.77;8.60;;;11.90;99.30;;;;;;5110962;28;20035;-73
2022/01/31 07:55:51;;;;;;;26.55;8.25;;;11.90;99.40;;;;;;5110944;28;20047;-75
2022/01/31 07:58:56;;;;;;;37.13;10.50;;;12.00;99.40;;;;;;5110156;28;20038;-78
2022/01/31 08:02:00;;;;;;;24.77;10.43;;;12.10;99.40;;;;;;5110456;28;20054;-78
2022/01/31 08:05:07;;;;;;;29.45;9.55;;;12.20;99.40;;;;;;5109787;28;20070;-78
2022/01/31 08:08:11;;;;;;;28.33;8.35;;;12.20;99.20;;;;;;5111029;28;20038;-77
2022/01/31 08:11:15;;;;;;;19.85;7.85;;;12.30;99.20;;;;;;5109690;28;20034;-75
2022/01/31 08:14:20;;;;;;;16.55;6.55;;;12.30;98.90;;;;;;5109959;28;20043;-76
2022/01/31 08:17:24;;;;;;;19.92;7.63;;;12.30;98.80;;;;;;5110707;28;20054;-79
2022/01/31 08:20:28;;;;;;;16.30;6.60;;;12.40;98.60;;;;;;5109586;28;20043;-77
2022/01/31 08:23:33;;;;;;;19.83;7.07;;;12.40;98.50;;;;;;5110236;28;20043;-79
2022/01/31 08:26:39;;;;;;;12.93;6.65;;;12.40;98.50;;;;;;5111380;28;20133;-77
2022/01/31 08:29:44;;;;;;;14.15;6.72;;;12.50;98.40;;;;;;5110898;28;20058;-80
2022/01/31 08:32:59;;;;;;;19.27;6.93;;;12.50;98.40;;;;;;5111008;28;20066;-82
2022/01/31 08:36:06;;;;;;;20.08;7.47;;;12.50;98.40;;;;;;5114169;28;20474;-82
2022/01/31 08:39:37;;;;;;;16.50;7.47;;;12.60;98.30;;;;;;5114448;28;20394;-83
2022/01/31 08:42:41;;;;;;;33.83;11.35;;;12.60;98.30;;;;;;5114448;28;20034;-82
2022/01/31 08:45:45;;;;;;;14.40;7.55;;;12.60;98.30;;;;;;5114686;28;20050;-83
2022/01/31 08:48:49;;;;;;;22.30;8.15;;;12.70;98.30;;;;;;5114274;28;20403;-82
2022/01/31 08:51:54;;;;;;;22.02;8.55;;;12.70;98.30;;;;;;5113546;28;20387;-85
2022/01/31 08:54:58;;;;;;;26.02;8.70;;;12.70;98.40;;;;;;5114450;28;20391;-81
2022/01/31 08:58:05;;;;;;;18.80;8.02;;;12.70;98.50;;;;;;5114424;28;20059;-82
2022/01/31 09:01:12;;;;;;;32.55;11.00;;;12.80;98.60;;;;;;5114161;28;20051;-81
2022/01/31 09:04:31;;;;;;;21.13;7.95;;;12.80;98.70;;;;;;5114321;28;20066;-81
2022/01/31 09:07:35;;;;;;;19.88;8.60;;;12.80;98.70;;;;;;5113872;28;20050;-83
2022/01/31 09:10:40;;;;;;;21.55;8.55;;;12.80;98.70;;;;;;5114243;28;20410;-80
2022/01/31 09:13:45;;;;;;;15.45;7.88;;;12.80;98.80;;;;;;5114529;28;20047;-80
2022/01/31 09:16:50;;;;;;;18.65;9.55;;;12.90;98.80;;;;;;5113868;28;20039;-82
2022/01/31 09:19:54;;;;;;;33.00;9.27;;;12.90;98.70;;;;;;5113683;28;20067;-82
2022/01/31 09:22:58;;;;;;;29.27;8.48;;;12.90;98.20;;;;;;5113450;28;20212;-81
2022/01/31 09:26:02;;;;;;;17.67;8.23;;;12.80;97.30;;;;;;5113107;28;20054;-78
2022/01/31 09:29:07;;;;;;;23.38;7.40;;;12.80;97.10;;;;;;5113829;28;20042;-79
2022/01/31 09:32:12;;;;;;;24.88;7.20;;;12.90;96.70;;;;;;5113633;28;20050;-74
2022/01/31 09:35:16;;;;;;;18.75;7.75;;;12.90;95.90;;;;;;5113536;28;20050;-77
2022/01/31 09:38:23;;;;;;;19.60;7.20;;;12.90;95.70;;;;;;5112988;28;20502;-76
2022/01/31 09:41:29;;;;;;;21.23;8.05;;;13.00;95.60;;;;;;5112986;28;20038;-77
2022/01/31 09:51:05;;;;;;;14.32;7.55;;;13.00;95.40;;;;;;5112326;28;20342;-74
2022/01/31 09:54:09;;;;;;;13.27;6.65;;;13.10;95.20;;;;;;5112759;28;20046;-77
2022/01/31 09:57:13;;;;;;;15.80;8.43;;;13.10;95.20;;;;;;5113037;28;20055;-77
2022/01/31 10:00:17;;;;;;;18.25;7.68;;;13.10;95.10;;;;;;5112662;28;20391;-78
2022/01/31 10:03:24;;;;;;;23.88;9.20;;;13.20;95.00;;;;;;5113026;28;20042;-79
2022/01/31 10:06:32;;;;;;;16.52;7.43;;;13.20;94.70;;;;;;5112587;28;20050;-79
2022/01/31 10:09:36;;;;;;;12.43;6.95;;;13.20;94.60;;;;;;5112738;28;20039;-81
2022/01/31 10:19:25;;;;;;;14.20;7.63;;;13.30;94.60;;;;;;5112800;28;20051;-78
2022/01/31 10:22:31;;;;;;;16.33;8.02;;;13.30;94.50;;;;;;5112418;28;20393;-74
2022/01/31 10:25:36;;;;;;;16.05;7.90;;;13.30;94.40;;;;;;5100142;28;20076;-74
2022/01/31 10:28:40;;;;;;;12.88;7.57;;;13.40;94.40;;;;;;5112516;28;20046;-78
2022/01/31 10:31:57;;;;;;;15.60;7.88;;;13.40;94.50;;;;;;5112605;28;20046;-78
2022/01/31 10:35:07;;;;;;;17.95;8.95;;;13.40;94.50;;;;;;5112325;28;20394;-79
2022/01/31 10:38:18;;;;;;;19.58;9.68;;;13.40;94.50;;;;;;5111588;28;20039;-80
2022/01/31 10:45:21;;;;;;;25.33;9.73;;;13.40;94.40;;;;;;5111357;28;20267;-80
2022/01/31 10:52:01;;;;;;;17.55;7.57;;;13.40;94.30;;;;;;5111664;28;20047;-79
2022/01/31 10:55:15;;;;;;;17.45;7.50;;;13.40;94.30;;;;;;5111808;28;20051;-84
2022/01/31 10:58:19;;;;;;;19.35;8.20;;;13.40;94.20;;;;;;5112155;28;20738;-84
2022/01/31 11:01:24;;;;;;;24.60;9.57;;;13.40;93.90;;;;;;5110865;28;20581;-83
2022/01/31 11:04:40;;;;;;;22.25;9.02;;;13.40;93.70;;;;;;5112504;28;20070;-77
2022/01/31 11:07:44;;;;;;;22.33;8.77;;;;;;;;;;5111468;28;20047;-79
2022/01/31 11:10:49;;;;;;;23.33;10.07;;;;;;;;;;5110125;28;20066;-78
2022/01/31 11:13:55;;;;;;;22.35;9.80;;;;;;;;;;5110992;28;20046;-77
2022/01/31 11:17:05;;;;;;;30.60;8.32;;;;;;;;;;5111244;28;20474;-76
2022/01/31 11:20:10;;;;;;;19.77;7.22;;;;;;;;;;5111339;28;20049;-76
2022/01/31 11:23:14;;;;;;;40.25;10.88;;;;;;;;;;5110340;28;20462;-76
2022/01/31 11:26:21;;;;;;;20.55;7.63;;;;;;;;;;5111286;28;20058;-77
2022/01/31 11:29:25;;;;;;;21.77;7.15;;;;;;;;;;5111454;28;20597;-76
2022/01/31 11:32:30;;;;;;;14.27;5.90;;;;;;;;;;5111059;28;20040;-77
2022/01/31 11:35:34;;;;;;;13.23;4.70;;;;;;;;;;5110408;28;20046;-74
2022/01/31 11:38:40;;;;;;;13.18;4.38;;;;;;;;;;5111430;28;20048;-77
2022/01/31 11:41:53;;;;;;;11.93;4.32;;;;;;;;;;5111382;28;20043;-80
2022/01/31 11:44:58;;;;;;;12.20;4.47;;;;;;;;;;5111091;28;20506;-80
2022/01/31 11:48:21;;;;;;;16.58;4.30;;;;;;;;;;5110929;28;20042;-80
2022/01/31 11:51:26;;;;;;;14.50;4.05;;;;;;;;;;5111108;28;20046;-77
2022/01/31 11:54:30;;;;;;;14.77;4.38;;;;;;;;;;5111033;28;20051;-77
2022/01/31 11:57:37;;;;;;;12.30;4.47;;;;;;;;;;5110149;28;20328;-76
2022/01/31 12:00:42;;;;;;;12.30;4.55;;;;;;;;;;5111116;28;20108;-76
2022/01/31 12:03:50;;;;;;;15.40;4.20;;;;;;;;;;5110895;28;20043;-81
2022/01/31 12:06:56;;;;;;;13.27;4.85;;;;;;;;;;5110890;28;20044;-78
2022/01/31 12:10:01;;;;;;;11.82;4.45;;;;;;;;;;5115056;28;20035;-76
2022/01/31 12:22:47;;;;;;;17.02;6.60;;;;;;;;;;5115071;28;20042;-77
2022/01/31 12:25:51;;;;;;;26.65;7.03;;;;;;;;;;5114796;28;20052;-78
2022/01/31 12:29:00;;;;;;;17.63;8.13;;;;;;;;;;5115168;28;20043;-77
2022/01/31 12:32:12;;;;;;;13.32;6.72;;;;;;;;;;5114116;28;20036;-78
2022/01/31 12:35:16;;;;;;;14.48;5.10;;;;;;;;;;5114922;28;20035;-79
2022/01/31 12:38:31;;;;;;;13.80;5.18;;;;;;;;;;5113572;28;20522;-76
2022/01/31 12:41:35;;;;;;;20.27;5.78;;;;;;;;;;5114865;28;20051;-77
2022/01/31 12:44:41;;;;;;;18.60;5.90;;;;;;;;;;5114646;28;20047;-78
2022/01/31 12:48:04;;;;;;;15.63;5.57;;;;;;;;;;5112893;28;20054;-75
2022/01/31 12:51:10;;;;;;;14.38;5.97;;;;;;;;;;5112742;28;20498;-81
2022/01/31 12:54:21;;;;;;;18.40;5.70;;;;;;;;;;5114273;28;20505;-77
2022/01/31 12:57:26;;;;;;;16.83;6.65;;;;;;;;;;5113211;28;20036;-77
2022/01/31 13:00:38;;;;;;;15.07;5.70;;;;;;;;;;5114366;28;20042;-77
2022/01/31 13:03:44;;;;;;;18.63;8.20;;;;;;;;;;5113999;28;20059;-77
2022/01/31 13:06:53;;;;;;;28.15;9.48;;;;;;;;;;5112892;28;20044;-77
2022/01/31 13:10:06;;;;;;;18.40;8.75;;;;;;;;;;5113950;28;20031;-76
2022/01/31 13:13:11;;;;;;;23.63;9.93;;;;;;;;;;5113669;28;20052;-76
2022/01/31 13:16:15;;;;;;;22.45;9.50;;;;;;;;;;5113916;28;20506;-75
2022/01/31 13:19:21;;;;;;;27.10;10.40;;;;;;;;;;5113833;28;20040;-74
2022/01/31 13:22:34;;;;;;;25.88;10.43;;;;;;;;;;5113260;28;20043;-78
2022/01/31 13:25:38;;;;;;;30.13;11.75;;;;;;;;;;5114168;28;20067;-79
2022/01/31 13:28:49;;;;;;;22.98;10.20;;;;;;;;;;5114103;28;20058;-76
2022/01/31 13:31:53;;;;;;;17.13;8.35;;;;;;;;;;5113129;28;20038;-79
2022/01/31 13:35:02;;;;;;;17.38;7.68;;;;;;;;;;5114512;28;20505;-84
2022/01/31 13:38:08;;;;;;;18.33;5.25;;;;;;;;;;5114632;28;20035;-82
2022/01/31 13:41:18;;;;;;;12.27;3.72;;;;;;;;;;5115383;28;20036;-84
2022/01/31 13:44:23;;;;;;;13.65;4.85;;;;;;;;;;5115109;28;20043;-78
2022/01/31 13:48:09;;;;;;;14.98;6.65;;;;;;;;;;5113236;28;20071;-78
2022/01/31 13:51:03;;;;;;;10.05;5.05;;;;;;;;;;5113493;28;20035;-77
2022/01/31 13:54:14;;;;;;;13.07;6.32;;;;;;;;;;5113970;28;20369;-79
2022/01/31 13:57:18;;;;;;;9.38;5.13;;;;;;;;;;5113831;28;20380;-80
2022/01/31 14:00:23;;;;;;;13.50;6.25;;;;;;;;;;5112242;28;20044;-78
2022/01/31 14:03:29;;;;;;;11.57;6.35;;;;;;;;;;5113581;28;20629;-78
2022/01/31 14:06:34;;;;;;;15.13;7.28;;;;;;;;;;5113953;28;20115;-78
2022/01/31 14:09:38;;;;;;;11.13;5.93;;;;;;;;;;5112792;28;20511;-83
2022/01/31 14:12:42;;;;;;;12.73;5.60;;;;;;;;;;5113296;28;20039;-78
2022/01/31 14:15:48;;;;;;;15.05;5.55;;;;;;;;;;5113464;28;20048;-77
2022/01/31 14:18:54;;;;;;;17.88;5.53;;;;;;;;;;5113663;28;20044;-81
2022/01/31 14:21:59;;;;;;;11.95;4.68;;;;;;;;;;5112340;28;20051;-76
2022/01/31 14:25:10;;;;;;;17.35;5.93;;;;;;;;;;5112945;28;20043;-77
2022/01/31 14:28:15;;;;;;;14.57;6.55;;;;;;;;;;5113345;28;20036;-80
2022/01/31 14:31:30;;;;;;;18.17;6.75;;;;;;;;;;5111516;28;20145;-81
2022/01/31 14:34:34;;;;;;;16.30;7.82;;;;;;;;;;5112712;28;20035;-78
2022/01/31 14:37:49;;;;;;;14.95;6.93;;;;;;;;;;5112602;28;20509;-82
2022/01/31 14:47:40;;;;;;;10.48;5.32;;;;;;;;;;5112366;28;20054;-77
2022/01/31 14:50:44;;;;;;;13.15;6.13;;;;;;;;;;5111967;28;20498;-78
2022/01/31 14:53:56;;;;;;;16.30;6.50;;;;;;;;;;5112654;28;20059;-77
2022/01/31 14:56:59;;;;;;;14.03;6.60;;;;;;;;;;5111926;28;20031;-78
2022/01/31 15:00:05;;;;;;;16.92;6.47;;;;;;;;;;5111777;28;20371;-77
2022/01/31 15:03:10;;;;;;;17.13;6.70;;;;;;;;;;5112070;28;20048;-78
2022/01/31 15:06:14;;;;;;;15.82;7.57;;;;;;;;;;5111744;28;20047;-82
2022/01/31 15:09:18;;;;;;;20.75;9.10;;;;;;;;;;5111792;28;20054;-80
2022/01/31 15:12:23;;;;;;;16.05;9.60;;;;;;;;;;5111009;28;20043;-78
2022/01/31 15:15:27;;;;;;;18.23;9.27;;;;;;;;;;5111546;28;20047;-81
2022/01/31 15:18:32;;;;;;;15.05;8.93;;;;;;;;;;5111703;28;20050;-79
2022/01/31 15:21:37;;;;;;;15.40;8.73;;;;;;;;;;5111254;28;20047;-81
2022/01/31 15:24:42;;;;;;;17.00;9.43;;;;;;;;;;5111597;28;20046;-79
2022/01/31 15:27:46;;;;;;;18.42;8.40;;;;;;;;;;5110890;28;20051;-76
2022/01/31 15:30:51;;;;;;;15.40;7.28;;;;;;;;;;5111513;28;20035;-80
2022/01/31 15:33:55;;;;;;;17.95;7.57;;;;;;;;;;5111324;28;20052;-81
2022/01/31 15:37:03;;;;;;;16.60;9.25;;;;;;;;;;5111481;28;20058;-77
2022/01/31 15:40:08;;;;;;;20.83;10.68;;;;;;;;;;5112078;28;20048;-78
2022/01/31 15:43:14;;;;;;;16.27;10.20;;;;;;;;;;5114187;28;20042;-79
2022/01/31 15:46:18;;;;;;;18.17;8.60;;;;;;;;;;5115622;28;20058;-76
2022/01/31 15:49:22;;;;;;;20.95;9.00;;;;;;;;;;5115538;28;20072;-76
2022/01/31 15:52:27;;;;;;;22.00;9.85;;;;;;;;;;5116163;28;20035;-80
2022/01/31 15:55:32;;;;;;;24.63;11.00;;;;;;;;;;5115438;28;20039;-79
2022/01/31 15:58:37;;;;;;;20.58;9.90;;;;;;;;;;5115201;28;20047;-79
2022/01/31 16:01:42;;;;;;;18.42;10.52;;;;;;;;;;5115099;28;20035;-77
2022/01/31 16:04:46;;;;;;;24.02;12.35;;;;;;;;;;5114580;28;20046;-78
2022/01/31 16:07:50;;;;;;;21.83;12.15;;;;;;;;;;5114879;28;20074;-78
2022/01/31 16:10:55;;;;;;;28.25;11.90;;;;;;;;;;5115262;28;20046;-77
2022/01/31 16:14:00;;;;;;;22.17;13.52;;;;;;;;;;5114819;28;20058;-77
2022/01/31 16:17:05;;;;;;;21.15;11.43;;;;;;;;;;5114320;28;20042;-79
2022/01/31 16:20:10;;;;;;;20.30;9.95;;;;;;;;;;5113787;28;20046;-78
2022/01/31 16:23:16;;;;;;;22.23;11.65;;;;;;;;;;5114900;28;20039;-77
2022/01/31 16:26:20;;;;;;;22.45;11.48;;;;;;;;;;5114412;28;20407;-78
2022/01/31 16:29:26;;;;;;;20.95;11.13;;;;;;;;;;5114804;28;20046;-76
2022/01/31 16:32:31;;;;;;;27.40;13.63;;;;;;;;;;5114531;28;20046;-76
2022/01/31 16:35:35;;;;;;;38.17;16.05;;;;;;;;;;5113882;28;20055;-75
2022/01/31 16:38:40;;;;;;;25.55;14.35;;;;;;;;;;5114535;28;20050;-78
2022/01/31 16:41:47;;;;;;;33.10;19.63;;;;;;;;;;5114337;28;20046;-78
2022/01/31 16:44:52;;;;;;;33.25;21.67;;;;;;;;;;5114068;28;20046;-76
2022/01/31 16:47:57;;;;;;;38.08;22.63;;;;;;;;;;5112785;28;20170;-78
2022/01/31 16:51:01;;;;;;;35.67;21.23;;;;;;;;;;5114058;28;20042;-75
2022/01/31 16:54:06;;;;;;;35.13;21.55;;;;;;;;;;5113968;28;20062;-75
2022/01/31 16:57:11;;;;;;;23.63;14.80;;;;;;;;;;5114113;28;20050;-77
2022/01/31 17:00:16;;;;;;;15.57;9.13;;;;;;;;;;5114166;28;20043;-81
2022/01/31 17:03:22;;;;;;;15.40;8.82;;;;;;;;;;5114101;28;20052;-76
2022/01/31 17:06:26;;;;;;;15.30;10.10;;;;;;;;;;5113498;28;20048;-76
2022/01/31 17:09:30;;;;;;;15.20;10.13;;;;;;;;;;5113345;28;20046;-81
2022/01/31 17:16:54;;;;;;;19.70;12.27;;;;;;;;;;5118980;28;20038;-78
2022/01/31 17:19:59;;;;;;;20.80;13.00;;;;;;;;;;5112661;28;20039;-78